sensor_id;sensor_type;location;lat;lon;timestamp;P1;durP1;ratioP1;P2;durP2;ratioP2
62582;SDS011;48641;51.676;5.808;2023-04-01T00:01:24;3.30;;;0.57;;
62582;SDS011;48641;51.676;5.808;2023-04-01T00:03:51;1.90;;;0.60;;
62582;SDS011;48641;51.676;5.808;2023-04-01T00:06:17;2.65;;;0.50;;
62582;SDS011;48641;51.676;5.808;2023-04-01T00:08:43;1.65;;;0.52;;
62582;SDS011;48641;51.676;5.808;2023-04-01T00:11:09;2.28;;;0.57;;
62582;SDS011;48641;51.676;5.808;2023-04-01T00:13:35;3.85;;;0.68;;
62582;SDS011;48641;51.676;5.808;2023-04-01T00:16:01;3.13;;;0.63;;
62582;SDS011;48641;51.676;5.808;2023-04-01T00:18:27;0.93;;;0.40;;
62582;SDS011;48641;51.676;5.808;2023-04-01T00:20:53;2.47;;;0.50;;
62582;SDS011;48641;51.676;5.808;2023-04-01T00:23:19;1.52;;;0.60;;
62582;SDS011;48641;51.676;5.808;2023-04-01T00:25:45;2.05;;;0.60;;
62582;SDS011;48641;51.676;5.808;2023-04-01T00:28:13;1.13;;;0.47;;
62582;SDS011;48641;51.676;5.808;2023-04-01T00:30:39;3.20;;;0.70;;
62582;SDS011;48641;51.676;5.808;2023-04-01T00:33:05;2.20;;;0.80;;
62582;SDS011;48641;51.676;5.808;2023-04-01T00:35:31;0.90;;;0.40;;
62582;SDS011;48641;51.676;5.808;2023-04-01T00:37:57;2.90;;;0.60;;
62582;SDS011;48641;51.676;5.808;2023-04-01T00:42:55;3.22;;;0.60;;
62582;SDS011;48641;51.676;5.808;2023-04-01T00:47:58;2.60;;;0.95;;
62582;SDS011;48641;51.676;5.808;2023-04-01T00:50:29;3.33;;;0.50;;
62582;SDS011;48641;51.676;5.808;2023-04-01T00:52:56;1.67;;;0.63;;
62582;SDS011;48641;51.676;5.808;2023-04-01T00:55:24;1.02;;;0.43;;
62582;SDS011;48641;51.676;5.808;2023-04-01T00:57:52;1.63;;;0.50;;
62582;SDS011;48641;51.676;5.808;2023-04-01T01:00:21;2.35;;;0.50;;
62582;SDS011;48641;51.676;5.808;2023-04-01T01:02:47;1.42;;;0.50;;
62582;SDS011;48641;51.676;5.808;2023-04-01T01:05:16;2.28;;;0.60;;
62582;SDS011;48641;51.676;5.808;2023-04-01T01:07:47;1.20;;;0.60;;
62582;SDS011;48641;51.676;5.808;2023-04-01T01:10:23;2.13;;;0.68;;
62582;SDS011;48641;51.676;5.808;2023-04-01T01:18:08;2.17;;;0.60;;
62582;SDS011;48641;51.676;5.808;2023-04-01T01:26:46;1.20;;;0.50;;
62582;SDS011;48641;51.676;5.808;2023-04-01T01:29:34;2.65;;;0.70;;
62582;SDS011;48641;51.676;5.808;2023-04-01T01:37:50;3.90;;;1.02;;
62582;SDS011;48641;51.676;5.808;2023-04-01T01:40:21;2.50;;;0.70;;
62582;SDS011;48641;51.676;5.808;2023-04-01T01:42:48;1.65;;;0.60;;
62582;SDS011;48641;51.676;5.808;2023-04-01T01:45:18;2.15;;;0.70;;
62582;SDS011;48641;51.676;5.808;2023-04-01T01:47:46;2.15;;;0.65;;
62582;SDS011;48641;51.676;5.808;2023-04-01T01:50:14;1.65;;;0.70;;
62582;SDS011;48641;51.676;5.808;2023-04-01T01:52:41;1.13;;;0.55;;
62582;SDS011;48641;51.676;5.808;2023-04-01T01:55:23;2.58;;;0.70;;
62582;SDS011;48641;51.676;5.808;2023-04-01T01:57:49;0.75;;;0.47;;
62582;SDS011;48641;51.676;5.808;2023-04-01T02:00:16;1.10;;;0.57;;
62582;SDS011;48641;51.676;5.808;2023-04-01T02:02:44;2.28;;;0.65;;
62582;SDS011;48641;51.676;5.808;2023-04-01T02:05:15;1.30;;;0.57;;
62582;SDS011;48641;51.676;5.808;2023-04-01T02:08:34;2.78;;;0.70;;
62582;SDS011;48641;51.676;5.808;2023-04-01T02:10:40;1.65;;;0.70;;
62582;SDS011;48641;51.676;5.808;2023-04-01T02:16:18;2.85;;;0.80;;
62582;SDS011;48641;51.676;5.808;2023-04-01T02:18:49;1.10;;;0.68;;
62582;SDS011;48641;51.676;5.808;2023-04-01T02:23:45;1.50;;;0.60;;
62582;SDS011;48641;51.676;5.808;2023-04-01T02:26:12;2.70;;;0.80;;
62582;SDS011;48641;51.676;5.808;2023-04-01T02:28:39;2.47;;;0.80;;
62582;SDS011;48641;51.676;5.808;2023-04-01T02:31:07;1.30;;;0.70;;
62582;SDS011;48641;51.676;5.808;2023-04-01T02:33:35;2.55;;;0.82;;
62582;SDS011;48641;51.676;5.808;2023-04-01T02:36:03;2.30;;;0.80;;
62582;SDS011;48641;51.676;5.808;2023-04-01T02:38:29;1.85;;;0.80;;
62582;SDS011;48641;51.676;5.808;2023-04-01T02:40:59;2.10;;;0.80;;
62582;SDS011;48641;51.676;5.808;2023-04-01T02:43:26;2.17;;;0.80;;
62582;SDS011;48641;51.676;5.808;2023-04-01T02:45:52;2.97;;;0.98;;
62582;SDS011;48641;51.676;5.808;2023-04-01T02:48:18;2.30;;;0.90;;
62582;SDS011;48641;51.676;5.808;2023-04-01T02:50:43;1.88;;;0.80;;
62582;SDS011;48641;51.676;5.808;2023-04-01T02:53:09;1.95;;;0.90;;
62582;SDS011;48641;51.676;5.808;2023-04-01T02:55:35;1.90;;;0.80;;
62582;SDS011;48641;51.676;5.808;2023-04-01T02:58:01;2.40;;;0.93;;
62582;SDS011;48641;51.676;5.808;2023-04-01T03:00:27;2.28;;;1.08;;
62582;SDS011;48641;51.676;5.808;2023-04-01T03:02:52;1.35;;;0.80;;
62582;SDS011;48641;51.676;5.808;2023-04-01T03:05:18;2.20;;;1.10;;
62582;SDS011;48641;51.676;5.808;2023-04-01T03:07:44;2.38;;;0.80;;
62582;SDS011;48641;51.676;5.808;2023-04-01T03:10:10;2.00;;;0.90;;
62582;SDS011;48641;51.676;5.808;2023-04-01T03:12:36;1.92;;;0.80;;
62582;SDS011;48641;51.676;5.808;2023-04-01T03:15:01;3.60;;;1.00;;
62582;SDS011;48641;51.676;5.808;2023-04-01T03:17:27;2.63;;;0.90;;
62582;SDS011;48641;51.676;5.808;2023-04-01T03:19:53;2.08;;;0.90;;
62582;SDS011;48641;51.676;5.808;2023-04-01T03:22:19;1.08;;;0.70;;
62582;SDS011;48641;51.676;5.808;2023-04-01T03:24:46;2.58;;;0.90;;
62582;SDS011;48641;51.676;5.808;2023-04-01T03:27:12;1.77;;;0.75;;
62582;SDS011;48641;51.676;5.808;2023-04-01T03:29:38;1.70;;;0.90;;
62582;SDS011;48641;51.676;5.808;2023-04-01T03:32:04;1.48;;;0.85;;
62582;SDS011;48641;51.676;5.808;2023-04-01T03:34:30;1.73;;;0.90;;
62582;SDS011;48641;51.676;5.808;2023-04-01T03:36:56;1.85;;;0.80;;
62582;SDS011;48641;51.676;5.808;2023-04-01T03:39:21;2.78;;;1.00;;
62582;SDS011;48641;51.676;5.808;2023-04-01T03:41:47;1.90;;;0.88;;
62582;SDS011;48641;51.676;5.808;2023-04-01T03:44:13;2.83;;;1.05;;
62582;SDS011;48641;51.676;5.808;2023-04-01T03:46:39;1.17;;;0.80;;
62582;SDS011;48641;51.676;5.808;2023-04-01T03:49:10;1.83;;;0.90;;
62582;SDS011;48641;51.676;5.808;2023-04-01T03:51:43;2.70;;;0.95;;
62582;SDS011;48641;51.676;5.808;2023-04-01T03:54:09;1.83;;;0.80;;
62582;SDS011;48641;51.676;5.808;2023-04-01T03:56:35;1.23;;;0.80;;
62582;SDS011;48641;51.676;5.808;2023-04-01T03:59:02;2.47;;;1.05;;
62582;SDS011;48641;51.676;5.808;2023-04-01T04:01:30;1.40;;;0.80;;
62582;SDS011;48641;51.676;5.808;2023-04-01T04:03:55;2.63;;;1.02;;
62582;SDS011;48641;51.676;5.808;2023-04-01T04:06:22;2.20;;;0.88;;
62582;SDS011;48641;51.676;5.808;2023-04-01T04:08:48;1.35;;;0.80;;
62582;SDS011;48641;51.676;5.808;2023-04-01T04:11:14;2.00;;;1.05;;
62582;SDS011;48641;51.676;5.808;2023-04-01T04:13:40;1.67;;;0.90;;
62582;SDS011;48641;51.676;5.808;2023-04-01T04:16:07;2.53;;;1.08;;
62582;SDS011;48641;51.676;5.808;2023-04-01T04:18:33;3.17;;;1.35;;
62582;SDS011;48641;51.676;5.808;2023-04-01T04:20:59;3.05;;;1.05;;
62582;SDS011;48641;51.676;5.808;2023-04-01T04:23:24;2.55;;;1.13;;
62582;SDS011;48641;51.676;5.808;2023-04-01T04:26:09;4.05;;;1.20;;
62582;SDS011;48641;51.676;5.808;2023-04-01T04:28:36;2.83;;;1.20;;
62582;SDS011;48641;51.676;5.808;2023-04-01T04:31:02;2.83;;;1.17;;
62582;SDS011;48641;51.676;5.808;2023-04-01T04:33:30;2.90;;;1.30;;
62582;SDS011;48641;51.676;5.808;2023-04-01T04:35:56;2.92;;;1.10;;
62582;SDS011;48641;51.676;5.808;2023-04-01T04:38:23;1.88;;;0.93;;
62582;SDS011;48641;51.676;5.808;2023-04-01T04:40:48;2.17;;;1.10;;
62582;SDS011;48641;51.676;5.808;2023-04-01T04:43:15;2.45;;;1.15;;
62582;SDS011;48641;51.676;5.808;2023-04-01T04:45:41;2.70;;;1.05;;
62582;SDS011;48641;51.676;5.808;2023-04-01T04:48:10;2.67;;;1.00;;
62582;SDS011;48641;51.676;5.808;2023-04-01T04:50:43;3.00;;;1.10;;
62582;SDS011;48641;51.676;5.808;2023-04-01T04:53:10;2.50;;;1.10;;
62582;SDS011;48641;51.676;5.808;2023-04-01T04:55:45;1.58;;;0.90;;
62582;SDS011;48641;51.676;5.808;2023-04-01T04:58:12;2.42;;;1.13;;
62582;SDS011;48641;51.676;5.808;2023-04-01T05:00:37;1.42;;;0.80;;
62582;SDS011;48641;51.676;5.808;2023-04-01T05:03:03;2.53;;;1.20;;
62582;SDS011;48641;51.676;5.808;2023-04-01T05:05:29;1.95;;;0.90;;
62582;SDS011;48641;51.676;5.808;2023-04-01T05:07:54;1.98;;;0.88;;
62582;SDS011;48641;51.676;5.808;2023-04-01T05:10:20;1.95;;;0.90;;
62582;SDS011;48641;51.676;5.808;2023-04-01T05:12:46;1.73;;;0.77;;
62582;SDS011;48641;51.676;5.808;2023-04-01T05:15:11;2.33;;;1.05;;
62582;SDS011;48641;51.676;5.808;2023-04-01T05:17:37;2.60;;;1.10;;
62582;SDS011;48641;51.676;5.808;2023-04-01T05:20:03;1.83;;;0.90;;
62582;SDS011;48641;51.676;5.808;2023-04-01T05:22:29;1.48;;;0.80;;
62582;SDS011;48641;51.676;5.808;2023-04-01T05:24:55;1.38;;;0.80;;
62582;SDS011;48641;51.676;5.808;2023-04-01T05:27:20;1.65;;;0.70;;
62582;SDS011;48641;51.676;5.808;2023-04-01T05:29:46;2.17;;;1.10;;
62582;SDS011;48641;51.676;5.808;2023-04-01T05:32:12;2.25;;;0.95;;
62582;SDS011;48641;51.676;5.808;2023-04-01T05:34:37;1.73;;;0.82;;
62582;SDS011;48641;51.676;5.808;2023-04-01T05:37:03;2.08;;;1.00;;
62582;SDS011;48641;51.676;5.808;2023-04-01T05:39:28;1.45;;;0.77;;
62582;SDS011;48641;51.676;5.808;2023-04-01T05:41:54;2.03;;;1.10;;
62582;SDS011;48641;51.676;5.808;2023-04-01T05:44:20;2.05;;;0.70;;
62582;SDS011;48641;51.676;5.808;2023-04-01T05:46:45;2.33;;;1.10;;
62582;SDS011;48641;51.676;5.808;2023-04-01T05:49:11;1.80;;;0.90;;
62582;SDS011;48641;51.676;5.808;2023-04-01T05:51:36;1.63;;;0.88;;
62582;SDS011;48641;51.676;5.808;2023-04-01T07:37:58;4.43;;;1.60;;
62582;SDS011;48641;51.676;5.808;2023-04-01T07:43:35;4.03;;;1.58;;
62582;SDS011;48641;51.676;5.808;2023-04-01T07:49:11;4.38;;;1.60;;
62582;SDS011;48641;51.676;5.808;2023-04-01T07:54:37;5.45;;;1.67;;
62582;SDS011;48641;51.676;5.808;2023-04-01T07:57:27;4.70;;;1.70;;
62582;SDS011;48641;51.676;5.808;2023-04-01T08:00:18;4.28;;;1.48;;
62582;SDS011;48641;51.676;5.808;2023-04-01T08:05:49;5.75;;;1.80;;
62582;SDS011;48641;51.676;5.808;2023-04-01T08:08:32;13.65;;;2.17;;
62582;SDS011;48641;51.676;5.808;2023-04-01T08:17:17;9.57;;;2.70;;
62582;SDS011;48641;51.676;5.808;2023-04-01T08:19:58;8.32;;;2.50;;
62582;SDS011;48641;51.676;5.808;2023-04-01T08:22:44;8.18;;;2.08;;
62582;SDS011;48641;51.676;5.808;2023-04-01T08:25:19;24.30;;;3.40;;
62582;SDS011;48641;51.676;5.808;2023-04-01T08:27:53;9.15;;;2.50;;
62582;SDS011;48641;51.676;5.808;2023-04-01T08:30:27;20.33;;;3.63;;
62582;SDS011;48641;51.676;5.808;2023-04-01T08:33:21;13.82;;;3.10;;
62582;SDS011;48641;51.676;5.808;2023-04-01T08:35:54;18.20;;;3.67;;
62582;SDS011;48641;51.676;5.808;2023-04-01T08:38:49;8.07;;;2.60;;
62582;SDS011;48641;51.676;5.808;2023-04-01T08:57:42;16.58;;;3.20;;
62582;SDS011;48641;51.676;5.808;2023-04-01T09:00:21;22.50;;;4.03;;
62582;SDS011;48641;51.676;5.808;2023-04-01T09:05:52;16.88;;;3.05;;
62582;SDS011;48641;51.676;5.808;2023-04-01T09:20:43;16.35;;;3.03;;
62582;SDS011;48641;51.676;5.808;2023-04-01T09:23:35;13.05;;;3.03;;
62582;SDS011;48641;51.676;5.808;2023-04-01T09:26:12;38.67;;;6.50;;
62582;SDS011;48641;51.676;5.808;2023-04-01T09:39:37;17.23;;;3.88;;
62582;SDS011;48641;51.676;5.808;2023-04-01T09:48:28;12.30;;;4.40;;
62582;SDS011;48641;51.676;5.808;2023-04-01T09:50:44;10.32;;;2.97;;
62582;SDS011;48641;51.676;5.808;2023-04-01T10:01:18;12.38;;;3.45;;
62582;SDS011;48641;51.676;5.808;2023-04-01T10:21:00;8.70;;;3.63;;
62582;SDS011;48641;51.676;5.808;2023-04-01T10:35:18;11.50;;;3.40;;
62582;SDS011;48641;51.676;5.808;2023-04-01T11:24:24;17.15;;;7.60;;
62582;SDS011;48641;51.676;5.808;2023-04-01T11:41:00;14.65;;;5.82;;
62582;SDS011;48641;51.676;5.808;2023-04-01T11:43:57;11.77;;;6.05;;
62582;SDS011;48641;51.676;5.808;2023-04-01T11:46:39;12.18;;;6.00;;
62582;SDS011;48641;51.676;5.808;2023-04-01T11:55:10;13.73;;;5.32;;
62582;SDS011;48641;51.676;5.808;2023-04-01T12:15:14;11.55;;;5.15;;
62582;SDS011;48641;51.676;5.808;2023-04-01T12:18:14;13.00;;;5.68;;
62582;SDS011;48641;51.676;5.808;2023-04-01T12:21:17;13.15;;;5.80;;
62582;SDS011;48641;51.676;5.808;2023-04-01T12:30:14;12.02;;;8.25;;
62582;SDS011;48641;51.676;5.808;2023-04-01T12:37:21;10.02;;;5.85;;
62582;SDS011;48641;51.676;5.808;2023-04-01T12:40:57;8.07;;;5.13;;
62582;SDS011;48641;51.676;5.808;2023-04-01T12:43:21;10.35;;;4.95;;
62582;SDS011;48641;51.676;5.808;2023-04-01T13:00:25;8.23;;;4.93;;
62582;SDS011;48641;51.676;5.808;2023-04-01T13:06:19;9.80;;;4.97;;
62582;SDS011;48641;51.676;5.808;2023-04-01T13:11:33;7.55;;;4.88;;
62582;SDS011;48641;51.676;5.808;2023-04-01T13:27:43;10.20;;;7.13;;
62582;SDS011;48641;51.676;5.808;2023-04-01T13:35:30;9.63;;;5.97;;
62582;SDS011;48641;51.676;5.808;2023-04-01T13:38:18;9.82;;;6.03;;
62582;SDS011;48641;51.676;5.808;2023-04-01T13:40:51;9.80;;;5.88;;
62582;SDS011;48641;51.676;5.808;2023-04-01T13:43:34;9.57;;;6.30;;
62582;SDS011;48641;51.676;5.808;2023-04-01T13:48:58;8.93;;;5.90;;
62582;SDS011;48641;51.676;5.808;2023-04-01T14:00:40;7.55;;;5.30;;
62582;SDS011;48641;51.676;5.808;2023-04-01T14:05:40;9.10;;;5.40;;
62582;SDS011;48641;51.676;5.808;2023-04-01T14:38:29;8.00;;;4.90;;
62582;SDS011;48641;51.676;5.808;2023-04-01T14:41:19;8.13;;;4.82;;
62582;SDS011;48641;51.676;5.808;2023-04-01T14:49:15;7.75;;;4.68;;
62582;SDS011;48641;51.676;5.808;2023-04-01T14:51:53;7.88;;;4.53;;
62582;SDS011;48641;51.676;5.808;2023-04-01T15:37:15;7.10;;;3.88;;
62582;SDS011;48641;51.676;5.808;2023-04-01T15:39:57;7.88;;;4.10;;
62582;SDS011;48641;51.676;5.808;2023-04-01T15:48:13;7.57;;;3.97;;
62582;SDS011;48641;51.676;5.808;2023-04-01T15:53:37;6.43;;;4.10;;
62582;SDS011;48641;51.676;5.808;2023-04-01T15:56:41;7.93;;;4.07;;
62582;SDS011;48641;51.676;5.808;2023-04-01T16:02:21;6.18;;;3.80;;
62582;SDS011;48641;51.676;5.808;2023-04-01T16:04:57;7.95;;;4.00;;
62582;SDS011;48641;51.676;5.808;2023-04-01T16:07:42;7.05;;;3.97;;
62582;SDS011;48641;51.676;5.808;2023-04-01T16:21:12;6.80;;;4.13;;
62582;SDS011;48641;51.676;5.808;2023-04-01T16:23:56;6.50;;;4.18;;
62582;SDS011;48641;51.676;5.808;2023-04-01T16:31:50;8.43;;;4.95;;
62582;SDS011;48641;51.676;5.808;2023-04-01T16:34:31;7.72;;;4.78;;
62582;SDS011;48641;51.676;5.808;2023-04-01T16:40:10;7.35;;;4.68;;
62582;SDS011;48641;51.676;5.808;2023-04-01T16:42:51;9.20;;;5.78;;
62582;SDS011;48641;51.676;5.808;2023-04-01T16:45:45;8.10;;;5.15;;
62582;SDS011;48641;51.676;5.808;2023-04-01T17:29:56;8.88;;;5.22;;
62582;SDS011;48641;51.676;5.808;2023-04-01T17:38:06;7.28;;;4.47;;
62582;SDS011;48641;51.676;5.808;2023-04-01T17:43:45;7.43;;;4.45;;
62582;SDS011;48641;51.676;5.808;2023-04-01T17:46:26;7.07;;;4.65;;
62582;SDS011;48641;51.676;5.808;2023-04-01T17:49:11;7.60;;;4.68;;
62582;SDS011;48641;51.676;5.808;2023-04-01T17:54:38;5.87;;;3.90;;
62582;SDS011;48641;51.676;5.808;2023-04-01T17:57:31;6.78;;;4.00;;
62582;SDS011;48641;51.676;5.808;2023-04-01T18:02:47;7.15;;;4.53;;
62582;SDS011;48641;51.676;5.808;2023-04-01T18:10:38;6.65;;;3.95;;
62582;SDS011;48641;51.676;5.808;2023-04-01T18:27:06;7.07;;;4.10;;
62582;SDS011;48641;51.676;5.808;2023-04-01T18:29:54;6.30;;;3.85;;
62582;SDS011;48641;51.676;5.808;2023-04-01T18:33:26;8.30;;;4.18;;
62582;SDS011;48641;51.676;5.808;2023-04-01T18:38:18;6.28;;;3.33;;
62582;SDS011;48641;51.676;5.808;2023-04-01T18:43:49;6.95;;;4.03;;
62582;SDS011;48641;51.676;5.808;2023-04-01T18:49:29;6.28;;;3.20;;
62582;SDS011;48641;51.676;5.808;2023-04-01T19:06:08;6.53;;;3.63;;
62582;SDS011;48641;51.676;5.808;2023-04-01T19:08:42;6.00;;;3.35;;
62582;SDS011;48641;51.676;5.808;2023-04-01T19:11:26;6.05;;;3.42;;
62582;SDS011;48641;51.676;5.808;2023-04-01T19:25:06;5.53;;;2.92;;
62582;SDS011;48641;51.676;5.808;2023-04-01T19:33:44;5.00;;;2.50;;
62582;SDS011;48641;51.676;5.808;2023-04-01T19:36:39;4.20;;;2.38;;
62582;SDS011;48641;51.676;5.808;2023-04-01T19:42:50;5.55;;;2.80;;
62582;SDS011;48641;51.676;5.808;2023-04-01T19:50:49;5.00;;;2.95;;
62582;SDS011;48641;51.676;5.808;2023-04-01T19:56:07;5.72;;;2.97;;
62582;SDS011;48641;51.676;5.808;2023-04-01T20:01:36;5.38;;;2.53;;
62582;SDS011;48641;51.676;5.808;2023-04-01T20:04:08;4.82;;;2.58;;
62582;SDS011;48641;51.676;5.808;2023-04-01T20:06:49;5.60;;;2.58;;
62582;SDS011;48641;51.676;5.808;2023-04-01T20:12:34;4.07;;;2.35;;
62582;SDS011;48641;51.676;5.808;2023-04-01T20:15:21;4.47;;;2.30;;
62582;SDS011;48641;51.676;5.808;2023-04-01T20:18:02;5.32;;;2.75;;
62582;SDS011;48641;51.676;5.808;2023-04-01T20:20:37;4.05;;;2.08;;
62582;SDS011;48641;51.676;5.808;2023-04-01T20:28:37;4.78;;;2.20;;
62582;SDS011;48641;51.676;5.808;2023-04-01T20:31:56;4.57;;;2.22;;
62582;SDS011;48641;51.676;5.808;2023-04-01T20:34:19;4.75;;;2.22;;
62582;SDS011;48641;51.676;5.808;2023-04-01T20:59:37;4.25;;;2.28;;
62582;SDS011;48641;51.676;5.808;2023-04-01T21:23:42;2.92;;;1.67;;
62582;SDS011;48641;51.676;5.808;2023-04-01T21:29:15;3.60;;;1.90;;
62582;SDS011;48641;51.676;5.808;2023-04-01T21:34:44;6.60;;;2.25;;
62582;SDS011;48641;51.676;5.808;2023-04-01T21:46:11;3.67;;;1.92;;
62582;SDS011;48641;51.676;5.808;2023-04-01T21:48:28;4.30;;;1.85;;
62582;SDS011;48641;51.676;5.808;2023-04-01T21:53:41;3.05;;;1.67;;
62582;SDS011;48641;51.676;5.808;2023-04-01T22:01:51;4.20;;;1.85;;
62582;SDS011;48641;51.676;5.808;2023-04-01T22:07:34;3.13;;;1.52;;
62582;SDS011;48641;51.676;5.808;2023-04-01T22:10:03;3.30;;;1.60;;
62582;SDS011;48641;51.676;5.808;2023-04-01T22:18:20;5.07;;;1.80;;
62582;SDS011;48641;51.676;5.808;2023-04-01T22:21:04;4.40;;;1.90;;
62582;SDS011;48641;51.676;5.808;2023-04-01T22:26:22;3.10;;;1.67;;
62582;SDS011;48641;51.676;5.808;2023-04-01T22:29:07;3.30;;;1.50;;
62582;SDS011;48641;51.676;5.808;2023-04-01T22:31:49;2.90;;;1.52;;
62582;SDS011;48641;51.676;5.808;2023-04-01T22:37:15;4.13;;;1.90;;
62582;SDS011;48641;51.676;5.808;2023-04-01T22:42:46;3.67;;;1.67;;
62582;SDS011;48641;51.676;5.808;2023-04-01T22:45:21;3.22;;;1.50;;
62582;SDS011;48641;51.676;5.808;2023-04-01T22:48:48;2.80;;;1.50;;
62582;SDS011;48641;51.676;5.808;2023-04-01T22:51:24;3.13;;;1.58;;
62582;SDS011;48641;51.676;5.808;2023-04-01T22:56:35;3.20;;;1.60;;
62582;SDS011;48641;51.676;5.808;2023-04-01T22:59:13;2.13;;;1.35;;
62582;SDS011;48641;51.676;5.808;2023-04-01T23:01:48;2.60;;;1.42;;
62582;SDS011;48641;51.676;5.808;2023-04-01T23:04:36;3.20;;;1.40;;
62582;SDS011;48641;51.676;5.808;2023-04-01T23:07:07;4.18;;;1.58;;
62582;SDS011;48641;51.676;5.808;2023-04-01T23:10:05;2.88;;;1.50;;
62582;SDS011;48641;51.676;5.808;2023-04-01T23:12:40;2.72;;;1.42;;
62582;SDS011;48641;51.676;5.808;2023-04-01T23:15:10;3.45;;;1.42;;
62582;SDS011;48641;51.676;5.808;2023-04-01T23:18:14;3.42;;;1.58;;
62582;SDS011;48641;51.676;5.808;2023-04-01T23:20:47;2.50;;;1.30;;
62582;SDS011;48641;51.676;5.808;2023-04-01T23:23:19;2.30;;;1.30;;
62582;SDS011;48641;51.676;5.808;2023-04-01T23:25:58;2.53;;;1.30;;
62582;SDS011;48641;51.676;5.808;2023-04-01T23:28:36;3.00;;;1.38;;
62582;SDS011;48641;51.676;5.808;2023-04-01T23:31:07;3.45;;;1.40;;
62582;SDS011;48641;51.676;5.808;2023-04-01T23:34:37;3.25;;;1.45;;
62582;SDS011;48641;51.676;5.808;2023-04-01T23:36:58;2.53;;;1.35;;
62582;SDS011;48641;51.676;5.808;2023-04-01T23:42:18;3.42;;;1.50;;
62582;SDS011;48641;51.676;5.808;2023-04-01T23:44:44;2.58;;;1.50;;
62582;SDS011;48641;51.676;5.808;2023-04-01T23:47:16;2.60;;;1.35;;
62582;SDS011;48641;51.676;5.808;2023-04-01T23:49:55;3.17;;;1.38;;
62582;SDS011;48641;51.676;5.808;2023-04-01T23:52:24;2.80;;;1.30;;
62582;SDS011;48641;51.676;5.808;2023-04-01T23:54:58;2.50;;;1.42;;
62582;SDS011;48641;51.676;5.808;2023-04-01T23:57:31;2.88;;;1.40;;
